Time;durP1;ratioP1;P1;durP2;ratioP2;P2;SDS_P1;SDS_P2;PMS_P1;PMS_P2;Temp;Humidity;BMP_temperature;BMP_pressure;BME280_temperature;BME280_humidity;BME280_pressure;Samples;Min_cycle;Max_cycle;Signal;HPM_P1;HPM_P2
2022/04/11 03:46:03;;;;;;;6.62;4.22;;;;;;;6.86;57.75;100983.66;5605996;31;79672;-56
2022/04/11 03:49:06;;;;;;;6.15;4.07;;;;;;;6.86;57.75;100983.66;5583603;31;33283;-57
2022/04/11 03:52:10;;;;;;;7.37;4.32;;;;;;;6.35;58.42;100992.31;5583732;31;33499;-57
2022/04/11 03:55:13;;;;;;;6.03;4.05;;;;;;;6.36;58.34;100987.81;5583686;31;31634;-57
2022/04/11 03:58:16;;;;;;;8.57;4.15;;;;;;;6.35;57.33;100992.31;5583661;31;33277;-57
2022/04/11 04:01:19;;;;;;;7.00;4.00;;;;;;;6.46;56.02;100998.66;5583528;32;34053;-57
2022/04/11 04:04:22;;;;;;;6.82;3.90;;;;;;;6.49;56.39;100995.53;5583423;31;33289;-57
2022/04/11 04:07:25;;;;;;;5.70;4.10;;;;;;;6.67;56.29;100994.53;5583461;31;33561;-56
2022/04/11 04:10:27;;;;;;;6.70;3.58;;;;;;;6.62;56.49;101001.59;5583701;31;34233;-57
2022/04/11 04:13:33;;;;;;;6.00;3.70;;;;;;;6.82;56.05;101004.62;5583581;32;33210;-57
2022/04/11 04:16:37;;;;;;;5.70;3.75;;;;;;;6.78;56.12;101008.81;5583464;31;34165;-57
2022/04/11 04:19:41;;;;;;;5.10;3.62;;;;;;;6.80;56.31;101014.75;5583397;31;34340;-57
2022/04/11 04:22:44;;;;;;;7.40;4.45;;;;;;;6.86;57.01;101012.97;5583007;31;34053;-57
2022/04/11 04:25:47;;;;;;;7.72;4.10;;;;;;;6.83;57.45;101025.72;5583426;31;33464;-57
2022/04/11 04:28:50;;;;;;;4.82;3.95;;;;;;;6.77;57.83;101026.69;5566226;32;33568;-57
2022/04/11 04:31:52;;;;;;;8.55;4.50;;;;;;;6.89;57.19;101025.81;5563839;32;33437;-57
2022/04/11 04:34:55;;;;;;;5.12;4.05;;;;;;;6.93;56.93;101030.44;5563686;32;34210;-57
2022/04/11 04:37:57;;;;;;;6.28;4.18;;;;;;;7.08;56.21;101035.22;5563685;32;33539;-57
2022/04/11 04:41:01;;;;;;;8.80;3.90;;;;;;;6.97;56.56;101044.09;5561994;32;33925;-57
2022/04/11 04:44:05;;;;;;;7.62;4.12;;;;;;;6.94;56.96;101042.69;5563354;32;34248;-57
2022/04/11 04:47:10;;;;;;;5.93;4.28;;;;;;;6.99;57.31;101048.13;5563415;32;33383;-57
2022/04/11 04:50:12;;;;;;;9.05;4.50;;;;;;;7.08;56.58;101056.53;5563607;32;33307;-57
2022/04/11 04:53:16;;;;;;;5.53;3.70;;;;;;;7.11;55.83;101049.91;5566323;32;34264;-56
2022/04/11 04:56:18;;;;;;;6.07;3.50;;;;;;;7.22;56.72;101057.87;5573364;31;34242;-57
2022/04/11 04:59:22;;;;;;;8.07;3.47;;;;;;;7.25;57.11;101054.72;5569566;32;32211;-57
2022/04/11 05:02:25;;;;;;;5.00;3.78;;;;;;;7.46;55.99;101063.06;5567775;32;33190;-57
2022/04/11 05:05:28;;;;;;;5.65;3.92;;;;;;;7.63;55.23;101060.37;5569122;31;34134;-57
2022/04/11 05:08:32;;;;;;;6.65;4.25;;;;;;;7.73;55.26;101060.53;5567832;32;33680;-57
2022/04/11 05:11:35;;;;;;;7.87;4.32;;;;;;;7.67;56.01;101061.50;5569931;31;33755;-57
2022/04/11 05:14:37;;;;;;;6.05;3.95;;;;;;;7.70;56.27;101063.69;5569813;32;34403;-57
2022/04/11 05:17:40;;;;;;;8.40;4.05;;;;;;;7.84;55.85;101075.62;5569544;32;33335;-57
2022/04/11 05:20:44;;;;;;;6.12;3.92;;;;;;;7.81;55.32;101073.44;5569577;31;33466;-57
2022/04/11 05:23:48;;;;;;;4.93;3.60;;;;;;;7.85;55.74;101077.25;5569732;31;33485;-57
2022/04/11 05:26:51;;;;;;;5.82;4.12;;;;;;;8.06;55.17;101069.53;5569635;32;33295;-57
2022/04/11 05:29:53;;;;;;;8.15;4.35;;;;;;;8.12;53.94;101077.37;5569475;32;33717;-57
2022/04/11 05:32:55;;;;;;;6.22;4.50;;;;;;;8.11;55.01;101072.25;5567814;31;34452;-57
2022/04/11 05:35:58;;;;;;;7.50;4.15;;;;;;;7.96;55.12;101079.00;5569321;32;33614;-57
2022/04/11 05:39:01;;;;;;;5.95;3.62;;;;;;;7.99;55.11;101081.19;5551123;32;34289;-57
2022/04/11 05:42:06;;;;;;;6.55;3.78;;;;;;;8.08;54.47;101072.75;5549660;32;33482;-57
2022/04/11 05:45:09;;;;;;;4.75;3.80;;;;;;;8.22;54.69;101069.50;5549449;32;33335;-57
2022/04/11 05:48:12;;;;;;;5.90;3.53;;;;;;;8.07;52.23;101073.81;5549756;32;34460;-57
2022/04/11 05:51:15;;;;;;;5.72;3.60;;;;;;;7.88;52.98;101071.44;5549829;32;33725;-57
2022/04/11 05:54:18;;;;;;;6.32;3.40;;;;;;;7.80;52.58;101076.38;5549814;32;33208;-56
2022/04/11 05:57:20;;;;;;;6.15;3.45;;;;;;;7.90;53.02;101076.53;5549746;32;33609;-56
2022/04/11 06:00:22;;;;;;;5.00;3.37;;;;;;;8.05;52.11;101074.06;5548971;32;33558;-57
2022/04/11 06:03:25;;;;;;;10.57;3.25;;;;;;;8.05;52.71;101076.75;5548287;32;34200;-57
2022/04/11 06:06:27;;;;;;;5.12;3.50;;;;;;;8.17;52.69;101081.97;5548823;32;34413;-57
2022/04/11 06:09:30;;;;;;;4.18;3.30;;;;;;;8.19;51.99;101078.00;5548479;32;31875;-57
2022/04/11 06:12:34;;;;;;;6.78;3.78;;;;;;;8.09;51.85;101069.84;5549219;32;34131;-57
2022/04/11 06:15:37;;;;;;;6.68;3.90;;;;;;;8.03;52.18;101078.84;5549483;32;33381;-57
2022/04/11 06:18:41;;;;;;;8.15;3.90;;;;;;;8.18;52.32;101075.59;5549779;32;33729;-57
2022/04/11 06:21:44;;;;;;;6.80;3.58;;;;;;;8.16;52.10;101072.34;5549596;32;34270;-57
2022/04/11 06:24:48;;;;;;;4.87;3.40;;;;;;;8.32;52.58;101066.16;5549598;32;33723;-57
2022/04/11 06:27:51;;;;;;;6.32;3.60;;;;;;;8.35;50.88;101070.19;5549304;32;33289;-57
2022/04/11 06:30:53;;;;;;;7.62;4.00;;;;;;;8.43;51.27;101073.25;5549247;32;34059;-57
2022/04/11 06:33:56;;;;;;;6.12;3.67;;;;;;;8.42;51.42;101076.19;5549079;32;33258;-56
2022/04/11 06:36:59;;;;;;;5.00;3.65;;;;;;;8.52;51.82;101075.50;5548877;32;33587;-56
2022/04/11 06:40:03;;;;;;;7.57;4.18;;;;;;;8.38;50.96;101070.53;5548848;32;33226;-56
2022/04/11 06:43:05;;;;;;;6.05;3.83;;;;;;;8.40;51.97;101064.94;5548974;32;34295;-56
2022/04/11 06:46:08;;;;;;;8.82;4.37;;;;;;;8.43;51.81;101067.91;5548990;32;33273;-56
2022/04/11 06:49:11;;;;;;;8.40;3.97;;;;;;;8.40;50.96;101070.28;5549363;32;33196;-57
2022/04/11 06:52:13;;;;;;;5.65;3.70;;;;;;;8.51;50.84;101064.00;5548855;32;33712;-57
2022/04/11 06:55:15;;;;;;;7.78;4.22;;;;;;;8.54;50.65;101068.81;5547541;32;33319;-57
2022/04/11 06:58:18;;;;;;;5.62;3.55;;;;;;;8.53;50.37;101069.09;5548000;32;34877;-57
2022/04/11 07:01:20;;;;;;;7.85;3.78;;;;;;;8.47;50.64;101081.56;5548145;32;33735;-57
2022/04/11 07:04:25;;;;;;;5.35;3.80;;;;;;;8.50;50.88;101072.25;5548362;32;34369;-57
2022/04/11 07:07:27;;;;;;;5.78;4.22;;;;;;;8.48;51.28;101075.19;5548901;32;33656;-57
2022/04/11 07:10:31;;;;;;;6.72;4.32;;;;;;;8.54;51.75;101076.03;5547442;32;33595;-56
2022/04/11 07:13:34;;;;;;;6.60;4.20;;;;;;;8.61;52.22;101082.84;5561216;32;34356;-57
2022/04/11 07:16:41;;;;;;;5.82;4.03;;;;;;;8.42;51.55;101089.53;5568613;32;34322;-56
2022/04/11 07:19:43;;;;;;;5.35;3.85;;;;;;;8.51;50.95;101079.22;5568524;32;33868;-56
2022/04/11 07:22:46;;;;;;;7.03;3.55;;;;;;;8.65;51.81;101077.78;5568419;32;34312;-57
2022/04/11 07:25:48;;;;;;;6.22;3.65;;;;;;;9.21;51.38;101091.75;5568455;32;33707;-57
2022/04/11 07:28:55;;;;;;;9.02;4.05;;;;;;;9.38;49.44;101084.41;5567970;32;34381;-57
2022/04/11 07:31:58;;;;;;;6.32;3.90;;;;;;;9.44;50.05;101084.44;5568439;32;33647;-57
2022/04/11 07:35:00;;;;;;;6.72;3.85;;;;;;;9.45;51.12;101083.38;5567865;32;33771;-57
2022/04/11 07:38:02;;;;;;;6.10;3.65;;;;;;;9.28;48.73;101088.88;5568235;32;34321;-57
2022/04/11 07:41:05;;;;;;;4.35;3.17;;;;;;;9.44;48.67;101077.25;5568323;32;34282;-57
2022/04/11 07:44:07;;;;;;;4.65;3.22;;;;;;;9.05;48.66;101085.44;5567892;32;33610;-57
2022/04/11 07:47:10;;;;;;;7.05;3.00;;;;;;;9.24;47.80;101091.25;5568199;32;34306;-56
2022/04/11 07:50:12;;;;;;;7.00;3.05;;;;;;;8.89;47.42;101087.16;5568066;32;35085;-56
2022/04/11 07:53:14;;;;;;;6.05;3.10;;;;;;;8.95;48.06;101082.66;5568061;32;33643;-57
2022/04/11 07:56:16;;;;;;;6.47;3.22;;;;;;;9.06;48.27;101086.25;5568115;32;34237;-57
2022/04/11 07:59:20;;;;;;;4.78;3.30;;;;;;;9.07;48.29;101088.69;5567769;32;34766;-57
2022/04/11 08:02:24;;;;;;;7.72;3.17;;;;;;;9.18;46.39;101082.34;5568039;32;33729;-57
2022/04/11 08:05:27;;;;;;;4.20;3.10;;;;;;;9.35;48.13;101082.25;5567806;32;33767;-57
2022/04/11 08:08:29;;;;;;;4.10;2.67;;;;;;;9.48;46.64;101080.22;5567777;32;33642;-57
2022/04/11 08:11:31;;;;;;;6.72;2.80;;;;;;;9.52;46.57;101090.13;5567608;32;33734;-57
2022/04/11 08:14:34;;;;;;;5.82;3.03;;;;;;;9.70;47.08;101083.59;5567768;32;33580;-57
2022/04/11 08:17:37;;;;;;;3.97;2.53;;;;;;;9.67;44.62;101080.59;5567664;32;33573;-57
2022/04/11 08:20:39;;;;;;;5.85;2.80;;;;;;;9.53;44.73;101089.06;5567525;32;34223;-57
2022/04/11 08:23:41;;;;;;;6.93;3.03;;;;;;;9.37;44.92;101077.44;5567519;32;33230;-57
2022/04/11 08:26:44;;;;;;;4.03;2.83;;;;;;;9.26;45.05;101073.06;5567346;32;33948;-57
2022/04/11 08:29:46;;;;;;;4.25;2.97;;;;;;;9.44;47.24;101071.88;5567049;32;34036;-57
2022/04/11 08:32:50;;;;;;;3.62;2.60;;;;;;;9.70;45.97;101072.88;5564038;32;33775;-57
2022/04/11 08:35:53;;;;;;;4.60;3.12;;;;;;;9.93;45.89;101077.03;5569200;32;34367;-57
2022/04/11 08:38:56;;;;;;;5.90;2.58;;;;;;;9.91;44.90;101073.03;5569324;32;33259;-56
2022/04/11 08:42:00;;;;;;;4.30;2.60;;;;;;;10.04;46.07;101067.19;5561973;32;33739;-57
2022/04/11 08:45:13;;;;;;;4.32;2.67;;;;;;;10.25;43.40;101073.47;5568927;32;33261;-57
2022/04/11 08:48:15;;;;;;;;;;;;;;;10.08;44.38;101069.09;5566879;32;33737;-57
2022/04/11 08:51:17;;;;;;;5.82;2.95;;;;;;;10.22;43.23;101065.94;5568460;32;33690;-57
2022/04/11 08:54:19;;;;;;;7.20;2.47;;;;;;;10.26;42.09;101070.53;5558384;32;33748;-57
2022/04/11 08:57:22;;;;;;;3.35;2.70;;;;;;;10.07;43.49;101075.53;5568235;32;34218;-57
2022/04/11 09:00:25;;;;;;;3.40;2.50;;;;;;;9.92;43.31;101069.28;5568223;32;34346;-57
2022/04/11 09:03:27;;;;;;;2.90;2.35;;;;;;;10.28;43.85;101073.78;5568224;32;34393;-57
2022/04/11 09:06:33;;;;;;;5.62;2.20;;;;;;;10.23;41.09;101071.06;5568770;32;34385;-57
2022/04/11 09:09:39;;;;;;;4.37;2.58;;;;;;;10.10;41.46;101072.34;5569434;32;33691;-57
2022/04/11 09:12:47;;;;;;;5.70;2.83;;;;;;;10.17;41.60;101080.13;5568808;32;34388;-57
2022/04/11 09:15:54;;;;;;;5.97;2.60;;;;;;;10.21;40.89;101072.38;5569374;32;34447;-57
2022/04/11 09:18:57;;;;;;;6.05;3.28;;;;;;;10.24;41.34;101077.22;5569624;32;34344;-56
2022/04/11 09:21:59;;;;;;;5.55;3.17;;;;;;;10.06;41.48;101076.56;5569521;32;33234;-57
2022/04/11 09:25:10;;;;;;;7.82;3.50;;;;;;;10.11;41.91;101063.22;5568163;32;33751;-57
2022/04/11 09:28:13;;;;;;;6.37;3.10;;;;;;;10.34;43.44;101070.06;5568369;32;34344;-57
2022/04/11 09:31:21;;;;;;;6.37;3.28;;;;;;;10.50;43.41;101070.13;5569412;32;33321;-57
2022/04/11 09:34:28;;;;;;;5.12;3.15;;;;;;;10.25;42.96;101063.53;5567971;32;33745;-56
2022/04/11 09:37:30;;;;;;;5.90;3.20;;;;;;;10.17;42.34;101073.97;5556468;32;33769;-57
2022/04/11 09:40:44;;;;;;;5.82;2.90;;;;;;;10.08;42.45;101070.97;5566048;32;34288;-57
2022/04/11 09:43:50;;;;;;;7.18;3.05;;;;;;;10.07;43.02;101061.31;5566683;32;33673;-57
2022/04/11 09:46:59;;;;;;;7.40;3.87;;;;;;;10.09;43.14;101064.53;5566798;32;33751;-56
2022/04/11 09:50:01;;;;;;;6.40;3.72;;;;;;;10.19;43.37;101059.22;5568202;32;33785;-57
2022/04/11 09:53:07;;;;;;;5.03;3.00;;;;;;;10.46;44.00;101060.97;5567652;32;34482;-57
2022/04/11 09:56:10;;;;;;;6.45;3.80;;;;;;;10.34;42.19;101059.34;5568790;32;34327;-57
2022/04/11 09:59:12;;;;;;;4.40;2.97;;;;;;;10.12;43.36;101062.12;5555309;32;34314;-57
2022/04/11 10:02:17;;;;;;;7.05;3.40;;;;;;;10.02;42.63;101062.09;5564260;32;33804;-57
2022/04/11 10:05:20;;;;;;;5.82;3.03;;;;;;;10.05;42.29;101066.94;5569004;32;34330;-57
2022/04/11 10:08:25;;;;;;;4.20;3.00;;;;;;;10.04;41.51;101062.66;5568491;32;34329;-56
2022/04/11 10:11:27;;;;;;;5.25;2.87;;;;;;;10.27;40.92;101060.66;5565028;32;33214;-57
2022/04/11 10:14:29;;;;;;;6.60;2.80;;;;;;;10.39;39.36;101050.50;5557389;32;34198;-57
2022/04/11 10:17:32;;;;;;;5.60;3.17;;;;;;;10.71;40.60;101049.53;5568973;32;34361;-56
2022/04/11 10:20:39;;;;;;;5.07;3.03;;;;;;;10.81;39.83;101055.72;5568909;32;33888;-57
2022/04/11 10:24:16;;;;;;;4.10;2.72;;;;;;;10.77;38.08;101048.50;5558602;32;34343;-57
2022/04/11 10:27:25;;;;;;;3.33;2.40;;;;;;;10.63;39.77;101042.00;5568883;32;33809;-57
2022/04/11 10:30:32;;;;;;;5.68;3.28;;;;;;;10.53;38.17;101051.66;5568810;32;33414;-57
2022/04/11 10:33:49;;;;;;;4.97;3.80;;;;;;;10.60;38.50;101054.09;5568789;32;33666;-57
2022/04/11 10:36:58;;;;;;;5.22;3.08;;;;;;;10.78;39.82;101050.91;5567200;32;33701;-57
2022/04/11 10:40:15;;;;;;;4.95;2.40;;;;;;;10.80;39.49;101046.09;5557950;32;33827;-57
2022/04/11 10:43:18;;;;;;;3.78;2.90;;;;;;;11.00;35.92;101057.91;5557576;32;34327;-57
2022/04/11 10:46:20;;;;;;;3.03;2.70;;;;;;;10.88;36.79;101050.09;5558503;32;33734;-57
2022/04/11 10:49:22;;;;;;;7.47;3.00;;;;;;;10.94;36.69;101054.41;5558081;32;33934;-57
2022/04/11 10:52:28;;;;;;;4.05;3.05;;;;;;;10.94;36.73;101043.69;5557549;32;33601;-57
2022/04/11 10:55:31;;;;;;;4.45;3.20;;;;;;;11.16;37.65;101039.94;5562762;32;33639;-57
2022/04/11 10:58:49;;;;;;;3.05;2.70;;;;;;;11.19;38.90;101034.88;5567984;32;34365;-57
2022/04/11 11:01:57;;;;;;;3.10;2.55;;;;;;;10.92;35.36;101043.13;5566397;32;33634;-56
2022/04/11 11:05:00;;;;;;;3.95;2.40;;;;;;;11.01;35.65;101046.09;5567862;32;33724;-57
2022/04/11 11:08:05;;;;;;;4.68;2.85;;;;;;;10.87;35.77;101037.78;5568696;32;33704;-57
2022/04/11 11:11:25;;;;;;;4.10;3.12;;;;;;;10.91;35.92;101044.22;5565575;32;33383;-57
2022/04/11 11:14:41;;;;;;;6.25;3.65;;;;;;;10.89;36.18;101043.66;5564310;32;33650;-57
2022/04/11 11:18:02;;;;;;;5.05;3.55;;;;;;;10.87;38.45;101036.97;5568388;32;34385;-57
2022/04/11 11:21:04;;;;;;;5.07;2.90;;;;;;;10.98;39.18;101039.41;5568330;32;34375;-57
2022/04/11 11:24:08;;;;;;;4.95;3.10;;;;;;;11.02;36.34;101039.66;5567897;32;33654;-57
2022/04/11 11:27:11;;;;;;;3.95;2.58;;;;;;;10.79;35.68;101041.81;5566651;32;34577;-57
2022/04/11 11:30:14;;;;;;;5.72;3.35;;;;;;;10.76;35.22;101036.97;5567382;32;34219;-57
2022/04/11 11:33:19;;;;;;;4.35;2.60;;;;;;;10.76;35.49;101030.75;5564466;32;33806;-57
2022/04/11 11:36:28;;;;;;;4.78;2.47;;;;;;;10.82;33.78;101027.03;5561783;32;34175;-57
2022/04/11 11:39:39;;;;;;;4.05;2.45;;;;;;;10.82;34.88;101027.03;5555951;32;34009;-57
2022/04/11 11:42:41;;;;;;;3.50;2.92;;;;;;;10.97;36.61;101026.25;5565958;32;33636;-57
2022/04/11 11:45:44;;;;;;;5.12;3.08;;;;;;;11.15;35.47;101019.56;5564581;32;34394;-57
2022/04/11 11:48:47;;;;;;;5.95;3.40;;;;;;;11.26;36.65;101013.13;5562610;32;33925;-57
2022/04/11 11:51:51;;;;;;;4.82;3.47;;;;;;;11.18;36.74;101022.50;5565063;32;33770;-57
2022/04/11 11:54:53;;;;;;;6.32;3.50;;;;;;;11.09;36.98;101015.25;5565284;32;33207;-57
2022/04/11 11:58:03;;;;;;;5.45;3.70;;;;;;;11.23;38.41;101008.31;5566592;32;33726;-57
2022/04/11 12:01:09;;;;;;;4.75;3.35;;;;;;;11.48;37.32;101004.78;5549934;32;33875;-57
2022/04/11 12:04:20;;;;;;;5.37;3.12;;;;;;;11.62;37.26;101000.47;5564049;32;35040;-57
2022/04/11 12:07:23;;;;;;;5.45;3.17;;;;;;;11.67;36.10;101011.19;5563310;32;33681;-57
2022/04/11 12:10:26;;;;;;;4.75;2.70;;;;;;;11.43;34.72;101013.66;5564214;32;34884;-57
2022/04/11 12:13:30;;;;;;;4.15;2.62;;;;;;;11.25;34.61;101004.25;5561474;32;34305;-57
2022/04/11 12:16:38;;;;;;;3.67;2.50;;;;;;;11.29;34.32;101004.50;5561813;32;33860;-57
2022/04/11 12:19:40;;;;;;;3.75;2.40;;;;;;;11.41;33.52;101005.06;5561241;32;33833;-57
2022/04/11 12:22:59;;;;;;;2.60;2.40;;;;;;;11.55;34.11;100991.88;5565693;32;33804;-57
2022/04/11 12:26:01;;;;;;;4.18;2.58;;;;;;;11.60;33.14;100999.94;5563252;32;34315;-57
2022/04/11 12:29:15;;;;;;;3.42;2.62;;;;;;;11.61;34.29;100992.66;5566652;32;34281;-57
2022/04/11 12:32:17;;;;;;;3.92;2.80;;;;;;;11.66;33.33;100992.69;5560232;32;33699;-57
2022/04/11 12:35:20;;;;;;;3.72;2.80;;;;;;;11.72;32.79;100988.88;5563401;32;33527;-57
2022/04/11 12:38:42;;;;;;;4.00;2.97;;;;;;;11.76;33.71;100979.22;5567457;32;33712;-57
2022/04/11 12:41:47;;;;;;;4.35;2.62;;;;;;;11.72;34.76;100980.81;5567303;32;33322;-57
2022/04/11 12:44:59;;;;;;;3.67;2.62;;;;;;;11.70;34.46;100975.72;5553610;32;34309;-57
2022/04/11 12:48:04;;;;;;;3.85;2.70;;;;;;;11.68;33.77;100977.06;5553283;32;33665;-57
2022/04/11 12:51:10;;;;;;;4.35;2.67;;;;;;;11.46;32.45;100980.09;5558639;32;33773;-57
2022/04/11 12:54:14;;;;;;;3.58;2.75;;;;;;;11.32;33.61;100981.69;5552971;32;33618;-57
2022/04/11 12:57:24;;;;;;;4.07;2.50;;;;;;;11.24;33.89;100983.88;5568189;32;33769;-57
2022/04/11 13:00:28;;;;;;;4.70;3.15;;;;;;;11.26;34.51;100979.03;5568284;32;33696;-57
2022/04/11 13:03:30;;;;;;;4.05;2.80;;;;;;;11.36;35.33;100977.44;5566293;32;34406;-57
2022/04/11 13:06:33;;;;;;;5.93;3.25;;;;;;;11.46;33.45;100969.34;5566543;32;34451;-57
2022/04/11 13:09:37;;;;;;;5.72;3.03;;;;;;;11.55;32.46;100969.59;5569082;32;34291;-57
2022/04/11 13:12:39;;;;;;;5.12;2.40;;;;;;;11.53;33.16;100965.31;5562288;32;33452;-57
2022/04/11 13:19:06;;;;;;;4.55;2.80;;;;;;;11.47;32.10;100955.66;5569155;32;33723;-57
2022/04/11 13:22:08;;;;;;;5.45;2.47;;;;;;;11.43;33.12;100953.78;5569897;32;34215;-57
2022/04/11 13:25:11;;;;;;;4.55;2.70;;;;;;;11.36;32.67;100956.75;5568902;32;33617;-57
2022/04/11 13:28:13;;;;;;;3.47;2.50;;;;;;;11.31;32.54;100962.13;5569034;32;33637;-57
2022/04/11 13:34:24;;;;;;;4.35;2.70;;;;;;;11.26;33.00;100949.53;5568506;32;33732;-56
2022/04/11 13:37:27;;;;;;;4.93;2.97;;;;;;;11.22;34.26;100953.78;5554355;32;34308;-56
2022/04/11 13:40:38;;;;;;;4.60;3.28;;;;;;;11.31;33.72;100956.75;5559435;32;33590;-57
2022/04/11 13:43:40;;;;;;;3.85;2.60;;;;;;;11.35;32.06;100947.06;5556681;32;33973;-57
2022/04/11 13:46:45;;;;;;;3.87;2.80;;;;;;;11.41;32.97;100945.19;5564955;32;33238;-57
2022/04/11 13:49:48;;;;;;;3.42;2.33;;;;;;;11.42;32.41;100944.09;5567201;32;34431;-56
2022/04/11 13:52:50;;;;;;;3.60;2.50;;;;;;;11.43;32.00;100938.47;5568898;32;33800;-56
2022/04/11 13:55:52;;;;;;;6.03;2.50;;;;;;;11.34;31.74;100944.66;5568771;32;34466;-57
2022/04/11 13:58:54;;;;;;;3.20;2.08;;;;;;;11.33;32.22;100937.69;5569627;32;34226;-57
2022/04/11 14:01:57;;;;;;;2.97;2.50;;;;;;;11.39;32.95;100937.41;5567734;32;34353;-57
2022/04/11 14:05:00;;;;;;;4.03;2.78;;;;;;;11.56;32.55;100937.09;5560667;32;33781;-57
2022/04/11 14:08:02;;;;;;;3.65;2.47;;;;;;;11.59;32.32;100939.25;5559100;32;33450;-57
2022/04/11 14:11:05;;;;;;;4.95;2.85;;;;;;;11.55;32.57;100927.44;5568727;32;34341;-56
2022/04/11 14:14:08;;;;;;;5.15;2.50;;;;;;;11.61;34.15;100934.41;5569050;32;33663;-57
2022/04/11 14:17:10;;;;;;;3.28;2.40;;;;;;;11.73;32.31;100934.09;5568724;32;33975;-57
2022/04/11 14:20:13;;;;;;;4.18;2.60;;;;;;;11.59;31.49;100933.88;5569330;32;34105;-57
2022/04/11 14:23:17;;;;;;;5.78;2.50;;;;;;;11.53;31.80;100924.22;5568297;32;33751;-57
2022/04/11 14:26:19;;;;;;;4.40;2.80;;;;;;;11.55;31.98;100921.25;5568269;32;33580;-57
2022/04/11 14:29:26;;;;;;;3.72;2.35;;;;;;;11.73;32.05;100916.09;5551311;32;34418;-57
2022/04/11 14:32:29;;;;;;;2.80;1.95;;;;;;;11.75;31.30;100918.50;5560625;32;33807;-57
2022/04/11 14:35:32;;;;;;;3.95;2.08;;;;;;;11.83;31.30;100919.84;5551429;32;33708;-57
2022/04/11 14:38:37;;;;;;;4.10;2.10;;;;;;;12.00;31.42;100920.31;5567647;32;34416;-57
2022/04/11 14:41:40;;;;;;;3.78;2.40;;;;;;;11.87;29.38;100915.53;5566648;32;34328;-56
2022/04/11 14:44:45;;;;;;;5.32;2.37;;;;;;;11.84;29.79;100908.81;5561415;32;33877;-57
2022/04/11 14:47:47;;;;;;;3.45;1.92;;;;;;;11.89;30.42;100906.12;5565989;32;34246;-57
2022/04/11 14:50:49;;;;;;;2.53;1.90;;;;;;;12.11;29.93;100905.72;5560705;32;33609;-57
2022/04/11 14:53:52;;;;;;;1.90;1.70;;;;;;;12.06;29.27;100908.47;5569016;32;33605;-57
2022/04/11 14:56:54;;;;;;;4.35;1.80;;;;;;;11.97;27.74;100905.53;5566982;32;34274;-57
2022/04/11 14:59:58;;;;;;;2.80;1.70;;;;;;;12.04;26.92;100904.44;5568823;32;33714;-57
2022/04/11 15:03:00;;;;;;;5.10;1.50;;;;;;;12.14;25.99;100899.00;5568616;32;33825;-56
2022/04/11 15:06:02;;;;;;;2.10;1.50;;;;;;;12.16;25.49;100897.66;5561793;32;33652;-57
2022/04/11 15:09:04;;;;;;;3.33;1.65;;;;;;;12.15;26.08;100897.91;5549397;32;34333;-57
2022/04/11 15:12:08;;;;;;;3.17;1.67;;;;;;;12.15;29.12;100896.06;5554906;32;34427;-57
2022/04/11 15:15:12;;;;;;;1.75;1.52;;;;;;;12.19;27.09;100901.69;5567045;32;33792;-57
2022/04/11 15:18:15;;;;;;;2.75;2.00;;;;;;;12.32;28.66;100892.19;5556837;32;34333;-57
2022/04/11 15:21:17;;;;;;;2.08;1.87;;;;;;;12.42;28.39;100886.75;5568397;32;34261;-57
2022/04/11 15:24:20;;;;;;;3.60;1.80;;;;;;;12.41;28.95;100880.53;5568779;32;34068;-57
2022/04/11 15:27:23;;;;;;;3.37;2.05;;;;;;;12.34;27.78;100882.75;5562260;31;33867;-57
2022/04/11 15:30:25;;;;;;;4.10;2.47;;;;;;;12.40;28.27;100886.22;5557452;32;33786;-57
2022/04/11 15:33:27;;;;;;;3.00;1.90;;;;;;;12.28;28.55;100883.06;5562408;32;34336;-57
2022/04/11 15:36:29;;;;;;;2.53;2.00;;;;;;;12.37;28.57;100882.19;5553134;32;34364;-57
2022/04/11 15:39:32;;;;;;;1.87;1.60;;;;;;;12.42;28.77;100887.53;5563757;32;33456;-57
2022/04/11 15:42:34;;;;;;;2.17;1.70;;;;;;;12.52;27.41;100885.88;5564311;32;34264;-57
